Time;durP1;ratioP1;P1;durP2;ratioP2;P2;SDS_P1;SDS_P2;PMS_P1;PMS_P2;Temp;Humidity;BMP_temperature;BMP_pressure;BME280_temperature;BME280_humidity;BME280_pressure;Samples;Min_cycle;Max_cycle;Signal;HPM_P1;HPM_P2
2020/12/09 00:01:31;;;;;;;79.03;34.30;;;3.80;90.80;;;;;;4990766;28;20069;-68
2020/12/09 00:04:01;;;;;;;77.10;33.93;;;3.70;90.80;;;;;;4990722;28;20046;-68
2020/12/09 00:06:34;;;;;;;84.30;36.30;;;3.70;90.80;;;;;;4989280;28;20392;-68
2020/12/09 00:09:00;;;;;;;80.60;35.87;;;3.70;90.90;;;;;;4991139;28;20046;-68
2020/12/09 00:11:26;;;;;;;81.73;37.40;;;3.70;90.80;;;;;;4991079;28;20062;-68
2020/12/09 00:13:53;;;;;;;83.57;36.90;;;3.60;90.90;;;;;;4988519;28;20069;-68
2020/12/09 00:16:18;;;;;;;80.40;36.10;;;3.70;91.00;;;;;;4991083;28;20464;-68
2020/12/09 00:18:45;;;;;;;84.17;35.90;;;3.70;91.00;;;;;;4990635;28;20117;-67
2020/12/09 00:21:20;;;;;;;85.80;37.50;;;3.60;91.00;;;;;;4991849;28;20042;-68
2020/12/09 00:23:47;;;;;;;91.37;38.03;;;3.60;91.10;;;;;;4984233;28;20030;-68
2020/12/09 00:26:23;;;;;;;88.00;35.73;;;3.60;91.10;;;;;;4994367;28;20034;-68
2020/12/09 00:28:50;;;;;;;82.13;35.83;;;3.60;91.10;;;;;;4976558;28;20563;-67
2020/12/09 00:31:21;;;;;;;89.37;37.40;;;3.60;91.10;;;;;;4994311;28;20399;-67
2020/12/09 00:33:48;;;;;;;88.57;37.37;;;3.60;91.10;;;;;;4992000;28;20133;-70
2020/12/09 00:36:19;;;;;;;82.67;35.23;;;3.70;91.20;;;;;;4992851;28;20031;-68
2020/12/09 00:38:48;;;;;;;79.30;35.55;;;3.70;91.20;;;;;;4993226;28;20045;-68
2020/12/09 00:41:16;;;;;;;88.37;37.40;;;3.70;91.00;;;;;;4992514;28;20039;-68
2020/12/09 00:43:41;;;;;;;86.47;34.33;;;3.70;91.10;;;;;;4993605;28;20121;-67
2020/12/09 00:46:07;;;;;;;94.17;37.40;;;3.60;91.00;;;;;;4992317;28;20118;-68
2020/12/09 00:48:33;;;;;;;90.97;37.03;;;3.60;91.10;;;;;;4976623;28;20491;-68
2020/12/09 00:50:59;;;;;;;84.90;34.70;;;3.60;91.00;;;;;;4992698;28;20034;-68
2020/12/09 00:53:27;;;;;;;82.33;34.50;;;3.60;91.20;;;;;;4991590;28;20038;-67
2020/12/09 00:55:54;;;;;;;91.23;36.17;;;3.60;91.30;;;;;;4992667;28;20092;-68
2020/12/09 00:58:20;;;;;;;84.17;34.90;;;3.60;91.20;;;;;;4992119;28;20507;-68
2020/12/09 01:00:47;;;;;;;79.77;31.10;;;3.60;91.30;;;;;;4992601;28;20117;-68
2020/12/09 01:03:20;;;;;;;80.53;33.00;;;3.60;91.30;;;;;;4991402;28;20185;-68
2020/12/09 01:05:46;;;;;;;80.03;31.73;;;3.60;91.10;;;;;;4993924;28;20543;-68
2020/12/09 01:08:12;;;;;;;84.90;33.57;;;3.50;91.20;;;;;;4992446;28;20072;-68
2020/12/09 01:10:37;;;;;;;74.53;33.07;;;3.50;91.10;;;;;;4993324;28;20082;-68
2020/12/09 01:13:03;;;;;;;87.50;34.60;;;3.40;91.20;;;;;;4992870;28;20407;-68
2020/12/09 01:15:29;;;;;;;79.67;32.90;;;3.40;91.20;;;;;;4991782;28;20093;-67
2020/12/09 01:17:54;;;;;;;79.03;33.20;;;3.40;91.20;;;;;;4993606;28;20038;-68
2020/12/09 01:20:20;;;;;;;80.20;32.23;;;3.40;91.20;;;;;;4993579;28;20042;-68
2020/12/09 01:22:46;;;;;;;82.80;33.47;;;3.30;91.30;;;;;;4992638;28;20416;-68
2020/12/09 01:25:11;;;;;;;76.30;31.90;;;3.40;91.30;;;;;;4993406;28;20038;-68
2020/12/09 01:27:37;;;;;;;81.03;32.90;;;3.30;91.30;;;;;;4991536;28;20080;-68
2020/12/09 01:30:03;;;;;;;76.27;32.43;;;3.30;91.40;;;;;;4993306;28;20038;-68
2020/12/09 01:32:28;;;;;;;83.90;33.03;;;3.30;91.30;;;;;;4992661;28;20030;-68
2020/12/09 01:34:54;;;;;;;76.07;30.87;;;3.30;91.40;;;;;;4992706;28;20539;-68
2020/12/09 01:37:20;;;;;;;80.70;33.03;;;3.40;91.60;;;;;;4993770;28;20039;-68
2020/12/09 01:39:46;;;;;;;76.23;31.60;;;3.30;91.50;;;;;;4991450;28;20035;-68
2020/12/09 01:42:12;;;;;;;76.43;32.20;;;3.30;91.50;;;;;;4992341;28;20038;-68
2020/12/09 01:44:38;;;;;;;84.67;33.17;;;3.30;91.50;;;;;;4993007;28;20399;-68
2020/12/09 01:47:07;;;;;;;84.47;33.73;;;3.30;91.40;;;;;;4991310;28;20043;-67
2020/12/09 01:49:34;;;;;;;80.73;33.07;;;3.40;91.50;;;;;;4991448;28;20049;-67
2020/12/09 01:52:04;;;;;;;81.10;32.10;;;3.30;91.50;;;;;;4991896;28;20073;-68
2020/12/09 01:54:31;;;;;;;70.57;29.83;;;3.30;91.50;;;;;;4992858;28;20046;-67
2020/12/09 01:57:14;;;;;;;81.40;32.13;;;3.30;91.40;;;;;;4992784;28;20559;-68
2020/12/09 01:59:41;;;;;;;82.07;31.67;;;3.30;91.30;;;;;;4992519;28;20097;-67
2020/12/09 02:02:08;;;;;;;79.97;32.40;;;3.20;91.40;;;;;;4992282;28;20107;-68
2020/12/09 02:04:34;;;;;;;86.60;30.97;;;3.20;91.50;;;;;;4990957;28;20042;-67
2020/12/09 02:07:01;;;;;;;89.70;33.37;;;3.20;91.60;;;;;;4992523;28;20060;-67
2020/12/09 02:09:27;;;;;;;90.10;35.43;;;3.10;91.60;;;;;;4992010;28;20182;-68
2020/12/09 02:11:55;;;;;;;101.07;34.70;;;3.10;91.70;;;;;;4991846;28;20042;-68
2020/12/09 02:14:22;;;;;;;85.70;34.00;;;3.10;91.80;;;;;;4992268;28;20050;-68
2020/12/09 02:16:52;;;;;;;85.10;30.70;;;3.10;91.80;;;;;;4990680;28;20065;-68
2020/12/09 02:19:18;;;;;;;81.60;31.08;;;3.20;91.80;;;;;;4991159;28;20045;-68
2020/12/09 02:21:44;;;;;;;79.63;30.40;;;3.20;91.80;;;;;;4991524;28;20121;-69
2020/12/09 02:24:10;;;;;;;85.33;31.40;;;3.10;91.80;;;;;;4990880;28;20113;-67
2020/12/09 02:26:41;;;;;;;86.77;33.57;;;3.10;91.80;;;;;;4992167;28;20034;-67
2020/12/09 02:29:07;;;;;;;;;;;3.10;91.80;;;;;;4992535;28;20045;-67
2020/12/09 02:31:32;;;;;;;83.07;30.47;;;3.10;92.20;;;;;;4991891;28;19918;-67
2020/12/09 02:33:58;;;;;;;84.80;31.23;;;3.10;92.00;;;;;;4990297;28;20045;-67
2020/12/09 02:36:24;;;;;;;87.20;31.33;;;3.10;92.00;;;;;;4991961;28;20052;-67
2020/12/09 02:38:50;;;;;;;84.67;32.23;;;3.10;92.00;;;;;;4974698;28;20035;-67
2020/12/09 02:41:15;;;;;;;84.73;32.60;;;3.10;92.30;;;;;;4991843;28;20057;-68
2020/12/09 02:43:41;;;;;;;86.07;31.63;;;3.10;92.00;;;;;;4990989;28;20088;-69
2020/12/09 02:46:07;;;;;;;76.97;29.73;;;3.10;92.00;;;;;;4991433;28;20062;-68
2020/12/09 02:48:32;;;;;;;81.23;30.77;;;3.10;92.10;;;;;;4991978;28;20495;-68
2020/12/09 02:50:58;;;;;;;61.00;23.97;;;3.20;92.00;;;;;;4992062;28;20042;-68
2020/12/09 02:53:24;;;;;;;85.23;30.53;;;3.20;92.10;;;;;;4990571;28;20038;-67
2020/12/09 02:55:49;;;;;;;76.17;30.97;;;3.10;92.00;;;;;;4991695;28;20049;-67
2020/12/09 02:58:15;;;;;;;75.63;30.77;;;3.10;92.10;;;;;;4991463;28;20093;-67
2020/12/09 03:00:41;;;;;;;78.00;30.13;;;3.20;92.10;;;;;;4991794;28;20050;-67
2020/12/09 03:03:07;;;;;;;80.57;31.43;;;3.20;92.20;;;;;;4991125;28;20038;-68
2020/12/09 03:05:32;;;;;;;79.77;31.07;;;3.20;92.20;;;;;;4991155;28;20046;-68
2020/12/09 03:08:04;;;;;;;73.77;29.00;;;3.20;92.20;;;;;;4990409;28;20503;-68
2020/12/09 03:10:30;;;;;;;64.93;27.47;;;3.20;92.20;;;;;;4991245;28;20085;-68
2020/12/09 03:12:57;;;;;;;69.73;29.23;;;3.30;92.10;;;;;;4991028;28;20050;-67
2020/12/09 03:15:24;;;;;;;70.00;29.10;;;3.30;92.00;;;;;;4991297;28;20443;-67
2020/12/09 03:17:50;;;;;;;72.23;28.53;;;3.20;92.10;;;;;;4991290;28;20089;-68
2020/12/09 03:20:15;;;;;;;67.23;26.27;;;3.20;92.10;;;;;;4991339;28;20042;-68
2020/12/09 03:22:41;;;;;;;71.10;28.60;;;3.20;92.10;;;;;;4989205;28;20043;-68
2020/12/09 03:25:07;;;;;;;75.00;29.67;;;3.20;92.10;;;;;;4990189;28;20034;-67
2020/12/09 03:27:33;;;;;;;76.87;30.63;;;3.20;92.20;;;;;;4991439;28;20499;-67
2020/12/09 03:29:58;;;;;;;72.90;30.53;;;3.30;92.30;;;;;;4991116;28;20034;-67
2020/12/09 03:32:24;;;;;;;74.93;30.20;;;3.30;92.30;;;;;;4990880;28;20380;-67
2020/12/09 03:34:50;;;;;;;86.10;32.00;;;3.40;92.40;;;;;;4990770;28;20085;-68
2020/12/09 03:37:15;;;;;;;82.40;33.33;;;3.40;92.20;;;;;;4990123;28;20046;-67
2020/12/09 03:39:41;;;;;;;74.63;28.57;;;3.40;92.20;;;;;;4991412;28;20057;-67
2020/12/09 03:42:07;;;;;;;82.17;30.10;;;3.40;92.20;;;;;;4989170;28;20031;-68
2020/12/09 03:44:33;;;;;;;77.33;29.27;;;3.40;92.00;;;;;;4991228;28;20042;-68
2020/12/09 03:46:59;;;;;;;78.30;30.10;;;3.40;92.00;;;;;;4989715;28;20128;-67
2020/12/09 03:49:25;;;;;;;85.23;32.37;;;3.40;92.10;;;;;;4991322;28;20034;-67
2020/12/09 03:51:52;;;;;;;75.00;30.93;;;3.40;92.20;;;;;;4990793;28;20042;-67
2020/12/09 03:54:17;;;;;;;80.80;31.53;;;3.40;92.20;;;;;;4989633;28;20045;-68
2020/12/09 03:56:43;;;;;;;76.90;29.47;;;3.50;92.30;;;;;;4991834;28;20034;-68
2020/12/09 03:59:09;;;;;;;75.07;29.67;;;3.40;92.20;;;;;;4993185;28;20038;-68
2020/12/09 04:01:35;;;;;;;79.23;29.60;;;3.50;92.20;;;;;;4993274;28;20069;-68
2020/12/09 04:04:01;;;;;;;82.33;31.77;;;3.50;92.10;;;;;;4993460;28;20034;-68
2020/12/09 04:06:26;;;;;;;79.47;31.50;;;3.40;92.10;;;;;;4994271;28;20488;-67
2020/12/09 04:08:52;;;;;;;84.13;30.93;;;3.40;92.10;;;;;;4994904;28;20297;-68
2020/12/09 04:11:18;;;;;;;80.47;31.93;;;3.40;92.10;;;;;;4975937;28;20562;-68
2020/12/09 04:13:44;;;;;;;79.30;30.93;;;3.40;92.20;;;;;;4976534;28;20046;-68
2020/12/09 04:16:09;;;;;;;81.03;31.37;;;3.40;92.20;;;;;;4993372;28;20042;-67
2020/12/09 04:18:35;;;;;;;76.40;29.37;;;3.50;92.20;;;;;;4994043;28;20042;-67
2020/12/09 04:21:01;;;;;;;79.23;31.27;;;3.50;92.20;;;;;;4994770;28;20111;-67
2020/12/09 04:23:27;;;;;;;86.07;32.50;;;3.50;92.10;;;;;;4993616;28;20188;-68
2020/12/09 04:25:52;;;;;;;83.07;32.43;;;3.50;92.20;;;;;;4993211;28;20057;-67
2020/12/09 04:28:18;;;;;;;84.03;31.10;;;3.50;92.20;;;;;;4994463;28;20045;-68
2020/12/09 04:30:44;;;;;;;81.07;29.90;;;3.50;92.20;;;;;;4992550;28;20038;-67
2020/12/09 04:33:10;;;;;;;84.30;31.70;;;3.50;92.40;;;;;;4993852;28;20089;-68
2020/12/09 04:35:38;;;;;;;79.73;30.33;;;3.50;92.20;;;;;;4993810;28;20038;-67
2020/12/09 04:38:05;;;;;;;79.40;31.30;;;3.50;92.20;;;;;;4994208;28;20041;-67
2020/12/09 04:40:31;;;;;;;72.90;30.73;;;3.50;92.20;;;;;;4994251;28;20377;-67
2020/12/09 04:42:59;;;;;;;82.47;31.70;;;3.50;92.30;;;;;;4993208;28;20037;-67
2020/12/09 04:45:29;;;;;;;76.87;31.10;;;3.50;92.40;;;;;;4992739;28;20042;-68
2020/12/09 04:48:06;;;;;;;81.05;31.17;;;3.60;92.30;;;;;;4993641;28;20046;-68
2020/12/09 04:50:55;;;;;;;78.60;31.53;;;3.60;92.20;;;;;;4994077;28;20467;-67
2020/12/09 04:53:26;;;;;;;77.83;31.50;;;3.60;92.30;;;;;;4993269;28;20040;-68
2020/12/09 04:55:53;;;;;;;83.07;32.50;;;3.60;92.20;;;;;;4992571;28;20038;-68
2020/12/09 04:58:39;;;;;;;71.97;30.60;;;3.70;92.50;;;;;;4993364;28;20480;-68
2020/12/09 05:01:07;;;;;;;78.47;31.77;;;3.70;92.30;;;;;;4993496;28;20040;-69
2020/12/09 05:03:47;;;;;;;77.57;30.87;;;3.70;92.30;;;;;;4992087;28;20034;-67
2020/12/09 05:06:16;;;;;;;80.88;32.67;;;3.80;92.30;;;;;;4993419;28;20061;-69
2020/12/09 05:08:52;;;;;;;78.77;31.57;;;3.80;92.20;;;;;;4992012;28;20412;-68
2020/12/09 05:11:22;;;;;;;70.27;30.10;;;3.80;92.10;;;;;;4992168;28;20046;-68
2020/12/09 05:13:52;;;;;;;75.22;31.67;;;3.80;92.00;;;;;;4991672;28;20061;-67
2020/12/09 05:16:19;;;;;;;72.47;30.23;;;3.70;91.90;;;;;;4993585;28;20038;-68
2020/12/09 05:18:45;;;;;;;79.43;32.67;;;3.70;92.00;;;;;;4993125;28;20037;-68
2020/12/09 05:21:17;;;;;;;72.87;30.50;;;3.70;92.00;;;;;;4993380;28;20458;-67
2020/12/09 05:23:46;;;;;;;84.23;31.27;;;3.70;92.10;;;;;;4991294;28;20384;-67
2020/12/09 05:26:17;;;;;;;73.73;31.37;;;3.70;92.20;;;;;;4993453;28;20046;-67
2020/12/09 05:28:43;;;;;;;76.37;30.37;;;3.70;92.10;;;;;;4992995;28;20044;-67
2020/12/09 05:31:19;;;;;;;72.93;31.70;;;3.80;92.10;;;;;;4993371;28;20491;-68
2020/12/09 05:33:44;;;;;;;73.83;31.10;;;3.80;92.10;;;;;;4992170;28;20070;-67
2020/12/09 05:36:10;;;;;;;74.50;31.73;;;3.80;92.10;;;;;;4991877;28;20064;-67
2020/12/09 05:38:36;;;;;;;75.13;29.30;;;3.80;92.00;;;;;;4993236;28;20035;-68
2020/12/09 05:41:10;;;;;;;74.20;31.77;;;3.70;92.00;;;;;;4992728;28;20026;-67
2020/12/09 05:43:42;;;;;;;73.33;31.47;;;3.80;92.00;;;;;;4992472;28;20042;-68
2020/12/09 05:46:11;;;;;;;74.37;31.27;;;3.70;91.90;;;;;;4991343;28;20038;-67
2020/12/09 05:48:37;;;;;;;78.03;31.03;;;3.70;92.00;;;;;;4992474;28;20053;-68
2020/12/09 05:51:04;;;;;;;76.23;31.10;;;3.70;91.90;;;;;;5007473;28;20058;-67
2020/12/09 05:53:32;;;;;;;74.73;30.60;;;3.80;91.90;;;;;;5007917;28;20038;-68
2020/12/09 05:56:11;;;;;;;78.97;32.10;;;3.70;91.90;;;;;;4994770;28;20034;-68
2020/12/09 05:58:40;;;;;;;76.23;31.43;;;3.70;92.00;;;;;;5027393;28;20395;-68
2020/12/09 06:01:19;;;;;;;70.63;31.03;;;3.80;92.00;;;;;;5032121;28;20116;-68
2020/12/09 06:03:49;;;;;;;74.80;30.27;;;3.80;92.10;;;;;;5031273;28;20037;-67
2020/12/09 06:06:16;;;;;;;80.77;31.10;;;3.80;91.90;;;;;;5032013;28;20099;-67
2020/12/09 06:08:52;;;;;;;79.57;33.07;;;3.80;91.90;;;;;;5029641;28;20117;-67
2020/12/09 06:11:33;;;;;;;78.47;32.47;;;3.80;92.00;;;;;;5030682;28;20152;-68
2020/12/09 06:14:00;;;;;;;74.18;31.40;;;3.80;92.00;;;;;;5031293;28;20061;-68
2020/12/09 06:16:26;;;;;;;74.03;31.20;;;3.80;91.90;;;;;;5031824;28;20029;-67
2020/12/09 06:18:56;;;;;;;78.77;31.87;;;3.80;92.00;;;;;;5030681;28;20437;-67
2020/12/09 06:21:23;;;;;;;79.80;32.30;;;3.80;92.10;;;;;;5031711;28;20486;-67
2020/12/09 06:23:53;;;;;;;79.93;33.10;;;3.80;92.00;;;;;;5030558;28;20100;-66
2020/12/09 06:26:19;;;;;;;76.47;31.57;;;3.90;91.90;;;;;;5031557;28;20168;-66
2020/12/09 06:28:46;;;;;;;77.70;31.50;;;3.90;91.90;;;;;;5030356;28;20108;-65
2020/12/09 06:31:14;;;;;;;73.50;31.00;;;3.90;91.90;;;;;;5031161;28;20487;-65
2020/12/09 06:33:54;;;;;;;78.73;30.90;;;3.90;91.90;;;;;;5030244;28;20395;-65
2020/12/09 06:36:28;;;;;;;75.10;29.33;;;3.90;92.00;;;;;;5030183;28;20030;-66
2020/12/09 06:39:06;;;;;;;74.53;32.00;;;3.90;91.90;;;;;;5031511;28;20033;-66
2020/12/09 06:41:36;;;;;;;79.67;32.17;;;3.90;91.80;;;;;;5030782;28;20653;-66
2020/12/09 06:44:10;;;;;;;74.70;31.15;;;3.90;91.80;;;;;;5029939;28;20095;-66
2020/12/09 06:46:50;;;;;;;76.30;31.97;;;3.90;91.90;;;;;;5030752;28;20502;-67
2020/12/09 06:49:32;;;;;;;71.93;29.77;;;3.90;91.80;;;;;;5031272;28;20387;-66
2020/12/09 06:52:02;;;;;;;75.53;31.70;;;3.80;91.70;;;;;;5030394;28;20445;-66
2020/12/09 06:54:41;;;;;;;77.80;31.88;;;3.80;91.80;;;;;;5029892;28;20303;-65
2020/12/09 06:57:14;;;;;;;75.83;32.17;;;3.80;91.80;;;;;;5029491;28;20529;-66
2020/12/09 06:59:40;;;;;;;72.30;30.67;;;3.80;91.90;;;;;;5013529;28;20037;-66
2020/12/09 07:02:07;;;;;;;70.77;30.53;;;3.80;91.90;;;;;;5028696;28;20034;-65
2020/12/09 07:04:59;;;;;;;72.40;30.80;;;3.90;91.80;;;;;;5025919;28;20494;-66
2020/12/09 07:07:28;;;;;;;71.47;30.97;;;3.90;91.80;;;;;;4991054;28;20034;-66
2020/12/09 07:09:53;;;;;;;74.33;30.37;;;3.80;91.80;;;;;;4991446;28;20464;-66
2020/12/09 07:12:20;;;;;;;75.80;32.33;;;3.90;91.90;;;;;;4990704;28;20125;-66
2020/12/09 07:14:50;;;;;;;73.00;31.20;;;3.90;91.90;;;;;;4991419;28;20048;-66
2020/12/09 07:17:17;;;;;;;73.68;31.38;;;3.90;91.80;;;;;;4990295;28;20050;-66
2020/12/09 07:19:42;;;;;;;76.30;31.63;;;3.90;91.80;;;;;;4989981;28;20034;-66
2020/12/09 07:22:08;;;;;;;75.27;30.30;;;3.90;91.80;;;;;;4990750;28;20498;-65
2020/12/09 07:24:35;;;;;;;76.90;31.20;;;3.90;91.90;;;;;;4991075;28;20129;-66
2020/12/09 07:27:00;;;;;;;77.73;32.63;;;3.90;91.90;;;;;;4991187;28;20076;-66
2020/12/09 07:29:27;;;;;;;78.60;32.57;;;4.00;91.80;;;;;;4991325;28;20125;-66
2020/12/09 07:31:58;;;;;;;85.77;33.93;;;4.00;91.80;;;;;;4994338;28;20046;-66
2020/12/09 07:34:24;;;;;;;72.80;31.47;;;4.00;91.90;;;;;;4995343;28;20049;-67
2020/12/09 07:36:52;;;;;;;80.00;30.50;;;4.00;91.80;;;;;;4978008;28;20046;-74
2020/12/09 07:39:34;;;;;;;78.30;32.43;;;4.00;91.70;;;;;;4995307;28;20559;-74
2020/12/09 07:42:01;;;;;;;80.10;31.50;;;4.00;91.60;;;;;;4993762;28;20111;-74
2020/12/09 07:44:28;;;;;;;70.17;30.80;;;4.00;91.70;;;;;;4977735;28;20065;-75
2020/12/09 07:46:58;;;;;;;76.83;31.33;;;4.00;91.80;;;;;;4994560;28;20042;-75
2020/12/09 07:49:25;;;;;;;75.88;32.08;;;4.00;91.90;;;;;;4995165;28;20571;-75
2020/12/09 07:51:53;;;;;;;83.90;33.83;;;4.00;91.90;;;;;;4994194;28;20117;-74
2020/12/09 07:54:20;;;;;;;83.20;33.03;;;4.10;91.80;;;;;;4993744;28;20072;-75
2020/12/09 07:56:47;;;;;;;78.87;32.40;;;4.10;91.90;;;;;;4994617;28;20450;-74
2020/12/09 07:59:14;;;;;;;75.97;30.73;;;4.10;91.80;;;;;;4994875;28;20045;-74
2020/12/09 08:01:40;;;;;;;77.70;32.00;;;4.10;91.90;;;;;;4993134;28;20039;-75
2020/12/09 08:04:09;;;;;;;73.17;30.87;;;4.10;91.90;;;;;;4994257;28;20454;-74
2020/12/09 08:06:35;;;;;;;81.90;33.37;;;4.10;91.90;;;;;;4994848;28;20034;-74
2020/12/09 08:09:15;;;;;;;79.23;32.40;;;4.10;91.90;;;;;;4994838;28;20089;-74
2020/12/09 08:11:44;;;;;;;81.73;33.57;;;4.20;91.90;;;;;;4992712;28;20045;-74
2020/12/09 08:14:11;;;;;;;75.20;31.30;;;4.20;92.00;;;;;;4992626;28;20050;-74
2020/12/09 08:16:38;;;;;;;76.40;32.10;;;4.20;92.00;;;;;;4991258;28;20042;-74
2020/12/09 08:19:09;;;;;;;80.03;31.93;;;4.20;92.00;;;;;;4989889;28;20038;-75
2020/12/09 08:21:37;;;;;;;74.93;32.13;;;4.20;92.00;;;;;;4991491;28;20045;-75
2020/12/09 08:24:13;;;;;;;76.17;31.20;;;4.30;91.90;;;;;;4992851;28;20042;-75
2020/12/09 08:26:42;;;;;;;72.37;31.57;;;4.30;91.90;;;;;;4992344;28;20411;-74
2020/12/09 08:29:15;;;;;;;75.83;32.03;;;4.20;91.80;;;;;;4993215;28;20041;-74
2020/12/09 08:31:41;;;;;;;76.70;30.67;;;4.30;92.00;;;;;;4993457;28;20033;-74
2020/12/09 08:34:14;;;;;;;72.80;28.70;;;4.30;91.80;;;;;;4976492;28;20038;-75
2020/12/09 08:36:40;;;;;;;67.20;30.20;;;4.20;91.80;;;;;;4993881;28;20085;-74
2020/12/09 08:39:06;;;;;;;62.97;29.10;;;4.20;91.70;;;;;;4993858;28;20053;-75
2020/12/09 08:41:35;;;;;;;65.10;29.30;;;4.30;91.70;;;;;;4992436;28;20042;-74
2020/12/09 08:44:04;;;;;;;67.17;29.83;;;4.30;91.80;;;;;;4993637;28;20047;-74
2020/12/09 08:46:30;;;;;;;65.97;27.73;;;4.30;91.80;;;;;;4992657;28;20516;-74
2020/12/09 08:48:57;;;;;;;67.80;28.57;;;4.40;91.90;;;;;;4992215;28;20042;-74
2020/12/09 08:51:29;;;;;;;62.80;26.97;;;4.40;91.80;;;;;;4993922;28;20030;-74
2020/12/09 08:53:55;;;;;;;64.27;28.30;;;4.40;91.70;;;;;;4993119;28;20042;-74
2020/12/09 08:56:29;;;;;;;62.57;27.67;;;4.50;91.50;;;;;;4992556;28;20031;-75
2020/12/09 08:58:55;;;;;;;55.70;23.90;;;4.50;91.60;;;;;;4992591;28;20034;-74
2020/12/09 09:01:22;;;;;;;68.50;28.90;;;4.50;91.60;;;;;;4993297;28;20101;-74
2020/12/09 09:03:51;;;;;;;62.53;28.70;;;4.40;91.40;;;;;;4992070;28;20072;-74
2020/12/09 09:06:17;;;;;;;59.20;26.23;;;4.40;91.50;;;;;;4993010;28;20038;-75
2020/12/09 09:08:43;;;;;;;60.47;28.03;;;4.40;91.40;;;;;;4993391;28;20049;-74
2020/12/09 09:11:09;;;;;;;71.03;29.43;;;4.40;91.50;;;;;;4992058;28;20121;-74
2020/12/09 09:13:35;;;;;;;63.77;28.80;;;4.40;91.60;;;;;;4992908;28;20046;-74
2020/12/09 09:16:09;;;;;;;65.60;29.20;;;4.40;91.60;;;;;;4993417;28;20097;-74
2020/12/09 09:18:36;;;;;;;64.87;29.30;;;4.40;91.60;;;;;;4975854;28;20443;-74
2020/12/09 09:21:02;;;;;;;64.30;29.07;;;4.40;91.50;;;;;;4992269;28;20119;-75
2020/12/09 09:23:28;;;;;;;63.50;29.03;;;4.40;91.60;;;;;;4991197;28;20546;-74
2020/12/09 09:25:54;;;;;;;68.13;29.57;;;4.40;91.70;;;;;;4993305;28;20054;-74
2020/12/09 09:28:20;;;;;;;71.70;30.13;;;4.40;91.70;;;;;;4990364;28;20459;-74
2020/12/09 09:30:46;;;;;;;67.17;30.33;;;4.40;91.60;;;;;;4990773;28;20042;-75
2020/12/09 09:33:11;;;;;;;63.03;28.53;;;4.40;91.70;;;;;;4992597;28;20042;-75
2020/12/09 09:35:37;;;;;;;63.13;28.13;;;4.50;91.60;;;;;;4991441;28;20186;-74
2020/12/09 09:38:03;;;;;;;64.87;28.47;;;4.50;91.60;;;;;;4991886;28;20048;-74
2020/12/09 09:40:29;;;;;;;65.70;28.53;;;4.50;91.60;;;;;;4993159;28;20496;-75
2020/12/09 09:42:55;;;;;;;64.33;28.13;;;4.50;91.70;;;;;;4992035;28;20038;-75
2020/12/09 09:45:22;;;;;;;61.17;27.40;;;4.50;91.70;;;;;;4975451;28;20038;-75
2020/12/09 09:47:48;;;;;;;59.83;27.90;;;4.60;91.60;;;;;;4992474;28;20491;-74
2020/12/09 09:50:14;;;;;;;60.00;26.10;;;4.60;91.40;;;;;;4992988;28;20035;-75
2020/12/09 09:52:39;;;;;;;58.43;27.43;;;4.50;91.20;;;;;;4992144;28;20039;-74
2020/12/09 09:55:05;;;;;;;63.70;26.97;;;4.50;91.30;;;;;;4991373;28;20052;-74
2020/12/09 09:57:33;;;;;;;56.53;26.43;;;4.50;91.30;;;;;;4991523;28;20034;-75
2020/12/09 09:59:58;;;;;;;55.97;26.63;;;4.40;91.20;;;;;;4992252;28;20487;-75
2020/12/09 10:02:25;;;;;;;56.23;26.37;;;4.50;91.30;;;;;;4990691;28;20166;-75
2020/12/09 10:04:51;;;;;;;57.80;25.50;;;4.40;91.20;;;;;;4992609;28;20037;-75
2020/12/09 10:07:17;;;;;;;61.13;27.63;;;4.50;91.30;;;;;;4990928;28;20396;-75
2020/12/09 10:09:42;;;;;;;56.07;24.57;;;4.50;91.40;;;;;;4991248;28;20031;-74
2020/12/09 10:12:08;;;;;;;56.70;26.97;;;4.50;91.40;;;;;;4989888;28;20034;-75
2020/12/09 10:14:35;;;;;;;57.70;26.87;;;4.60;91.30;;;;;;4992190;28;20417;-74
2020/12/09 10:17:01;;;;;;;58.80;26.90;;;4.60;91.20;;;;;;4990839;28;20034;-75
2020/12/09 10:19:27;;;;;;;59.33;25.67;;;4.60;91.20;;;;;;4990548;28;20041;-75
2020/12/09 10:21:52;;;;;;;48.03;21.37;;;4.50;91.20;;;;;;4990337;28;20038;-75
2020/12/09 10:24:18;;;;;;;57.77;27.20;;;4.50;91.10;;;;;;4991679;28;20467;-74
2020/12/09 10:26:44;;;;;;;58.60;27.70;;;4.50;91.00;;;;;;4992070;28;20030;-76
2020/12/09 10:29:11;;;;;;;57.63;25.07;;;4.50;91.30;;;;;;4990917;28;20042;-75
2020/12/09 10:31:42;;;;;;;57.50;27.00;;;4.50;91.20;;;;;;4991354;28;20089;-75
2020/12/09 10:34:10;;;;;;;58.60;25.97;;;4.50;91.10;;;;;;4991980;28;20070;-75
2020/12/09 10:36:37;;;;;;;56.63;25.77;;;4.50;91.20;;;;;;4991539;28;20039;-75
2020/12/09 10:39:05;;;;;;;53.47;24.93;;;4.50;91.10;;;;;;4991961;28;20408;-74
2020/12/09 10:41:33;;;;;;;54.87;25.77;;;4.50;91.10;;;;;;4974001;28;20035;-74
2020/12/09 10:43:58;;;;;;;58.37;27.03;;;4.50;91.10;;;;;;4991650;28;20125;-75
2020/12/09 10:46:35;;;;;;;60.87;27.40;;;4.50;91.10;;;;;;4991862;28;20712;-75
2020/12/09 10:49:04;;;;;;;62.73;25.83;;;4.50;91.10;;;;;;4990256;28;20109;-75
2020/12/09 10:51:30;;;;;;;55.60;25.37;;;4.50;91.00;;;;;;4991746;28;20498;-75
2020/12/09 10:53:57;;;;;;;58.37;26.30;;;4.50;91.10;;;;;;4989452;28;20047;-75
2020/12/09 10:56:31;;;;;;;58.40;25.60;;;4.50;91.10;;;;;;4991625;28;20038;-75
2020/12/09 10:58:58;;;;;;;58.93;27.27;;;4.50;91.10;;;;;;4991174;28;20149;-75
2020/12/09 11:01:27;;;;;;;58.97;27.63;;;4.50;91.10;;;;;;4991706;28;20030;-75
2020/12/09 11:03:54;;;;;;;61.23;26.57;;;4.60;91.10;;;;;;4991196;28;20050;-75
2020/12/09 11:06:35;;;;;;;59.80;25.87;;;4.60;91.10;;;;;;4989757;28;20491;-74
2020/12/09 11:09:05;;;;;;;58.10;26.03;;;4.60;91.00;;;;;;4973601;28;20380;-73
2020/12/09 11:11:31;;;;;;;61.90;26.40;;;4.60;91.00;;;;;;4991512;28;20030;-74
2020/12/09 11:13:57;;;;;;;58.50;26.57;;;4.60;91.00;;;;;;4990714;28;20485;-74
2020/12/09 11:16:24;;;;;;;67.93;28.37;;;4.60;90.90;;;;;;4991005;28;20049;-75
2020/12/09 11:18:50;;;;;;;61.90;26.77;;;4.60;90.80;;;;;;4991560;28;20038;-75
2020/12/09 11:21:25;;;;;;;67.73;28.37;;;4.60;90.80;;;;;;4990836;28;20411;-74
2020/12/09 11:23:52;;;;;;;69.47;30.00;;;4.50;90.80;;;;;;4990957;28;20125;-74
2020/12/09 11:26:19;;;;;;;73.50;30.70;;;4.50;90.80;;;;;;4973395;28;20038;-73
2020/12/09 11:28:45;;;;;;;71.73;29.30;;;4.50;90.90;;;;;;4991516;28;20038;-74
2020/12/09 11:31:11;;;;;;;67.30;27.93;;;4.50;90.90;;;;;;4991242;28;20065;-74
2020/12/09 11:33:37;;;;;;;68.03;29.10;;;4.50;91.00;;;;;;4989059;28;20508;-74
2020/12/09 11:36:04;;;;;;;65.30;28.53;;;4.50;91.00;;;;;;4991174;28;20066;-75
2020/12/09 11:38:30;;;;;;;66.90;28.13;;;4.50;91.10;;;;;;4990895;28;20503;-74
2020/12/09 11:40:56;;;;;;;71.10;30.17;;;4.60;91.10;;;;;;4991321;28;20122;-74
2020/12/09 11:43:25;;;;;;;66.07;27.73;;;4.60;91.00;;;;;;4988631;28;20097;-75
2020/12/09 11:45:51;;;;;;;64.70;29.63;;;4.60;91.00;;;;;;4967102;28;20049;-74
2020/12/09 11:48:17;;;;;;;65.13;28.27;;;4.60;91.00;;;;;;4989212;28;20023;-74
2020/12/09 11:50:42;;;;;;;66.67;29.80;;;4.70;91.10;;;;;;4989285;28;20041;-74
2020/12/09 11:53:09;;;;;;;69.70;29.43;;;4.70;91.00;;;;;;4990830;28;20622;-75
2020/12/09 11:55:35;;;;;;;71.20;28.90;;;4.70;91.00;;;;;;4989564;28;20059;-74
2020/12/09 11:58:01;;;;;;;68.30;29.13;;;4.70;91.00;;;;;;4987885;28;20428;-74
2020/12/09 12:00:28;;;;;;;66.63;29.70;;;4.80;90.90;;;;;;4988520;28;20603;-74
2020/12/09 12:02:54;;;;;;;61.27;27.77;;;4.70;90.80;;;;;;4988598;28;20102;-74
2020/12/09 12:05:23;;;;;;;69.93;30.43;;;4.70;90.90;;;;;;4973549;28;20117;-74
2020/12/09 12:07:49;;;;;;;66.80;28.87;;;4.70;91.00;;;;;;4972487;28;20453;-69
2020/12/09 12:10:14;;;;;;;69.73;30.83;;;4.70;90.80;;;;;;4988468;28;20504;-74
2020/12/09 12:12:40;;;;;;;69.87;30.90;;;4.70;90.80;;;;;;4988889;28;20054;-74
2020/12/09 12:15:07;;;;;;;62.43;27.30;;;4.70;90.80;;;;;;4989058;28;20050;-74
2020/12/09 12:17:33;;;;;;;63.57;30.10;;;4.80;90.90;;;;;;4992222;28;20042;-74
2020/12/09 12:19:58;;;;;;;69.13;29.00;;;4.80;91.00;;;;;;4993794;28;20035;-74
2020/12/09 12:22:24;;;;;;;62.83;28.27;;;4.80;91.00;;;;;;4992172;28;20548;-75
2020/12/09 12:24:50;;;;;;;66.40;29.03;;;4.80;90.80;;;;;;4993904;28;20046;-75
2020/12/09 12:27:16;;;;;;;68.07;29.57;;;4.80;90.60;;;;;;4993542;28;20034;-74
2020/12/09 12:29:41;;;;;;;61.60;27.43;;;4.70;90.70;;;;;;4993231;28;20042;-74
2020/12/09 12:32:07;;;;;;;65.00;29.10;;;4.70;90.70;;;;;;4993232;28;20046;-74
2020/12/09 12:34:35;;;;;;;68.40;29.13;;;4.70;90.80;;;;;;4993288;28;20046;-74
2020/12/09 12:37:02;;;;;;;67.87;30.47;;;4.70;90.80;;;;;;4992885;28;20049;-74
2020/12/09 12:39:28;;;;;;;66.20;29.43;;;4.70;90.80;;;;;;4992572;28;20427;-74
2020/12/09 12:41:53;;;;;;;70.47;30.43;;;4.70;90.80;;;;;;5019819;28;20045;-74